BAF657 EBBR-LGRX
Flight info
| Callsign | BAF657 |
|---|---|
| Flight time | N/A |
| Altitude | 31000 |
| Route | PITES DCT KRH DCT UTABA DCT BEMKI DCT ELMEM DCT DIRAB DCT PEVAL DCT ZDA DCT UVODI DCT GISAM DCT CRAYE DCT NOSTO UL612 ORTOS |
| Aircraft | A400/H-SDE2E3FGHIJ4J5M1RWXY/LB1D1 |
Departure
| Time | 2026-05-01 13:44 |
|---|---|
| Airport | Brussels Airport (EBBR) |
Arrival
| Time | N/A |
|---|---|
| Airport | Patras Araxos Agamemnon Airport (LGRX) |
| Time | Latitude | Longitude | Altitude | Speed | Heading |
|---|---|---|---|---|---|
| 2026-05-01 13:21 | 50.91136 | 4.48691 | 126 ft | 0 kts | 239° |
| 2026-05-01 13:34 | 50.91118 | 4.48664 | 126 ft | 3 kts | 202° |
| 2026-05-01 13:34 | 50.91066 | 4.48668 | 128 ft | 7 kts | 200° |
| 2026-05-01 13:35 | 50.90994 | 4.48494 | 126 ft | 15 kts | 238° |
| 2026-05-01 13:35 | 50.90940 | 4.48352 | 125 ft | 15 kts | 239° |
| 2026-05-01 13:35 | 50.90812 | 4.48157 | 129 ft | 6 kts | 162° |
| 2026-05-01 13:36 | 50.90806 | 4.48160 | 130 ft | 0 kts | 162° |
| 2026-05-01 13:36 | 50.90759 | 4.48185 | 126 ft | 7 kts | 162° |
| 2026-05-01 13:37 | 50.90685 | 4.48235 | 127 ft | 15 kts | 139° |
| 2026-05-01 13:37 | 50.90624 | 4.48402 | 126 ft | 20 kts | 119° |
| 2026-05-01 13:37 | 50.90551 | 4.48590 | 126 ft | 19 kts | 118° |
| 2026-05-01 13:37 | 50.90557 | 4.48768 | 128 ft | 16 kts | 66° |
| 2026-05-01 13:38 | 50.90640 | 4.49107 | 126 ft | 15 kts | 100° |
| 2026-05-01 13:38 | 50.90573 | 4.49187 | 127 ft | 11 kts | 158° |
| 2026-05-01 13:38 | 50.90495 | 4.49239 | 132 ft | 18 kts | 157° |
| 2026-05-01 13:39 | 50.90374 | 4.49330 | 130 ft | 17 kts | 153° |
| 2026-05-01 13:39 | 50.90283 | 4.49401 | 132 ft | 14 kts | 180° |
| 2026-05-01 13:39 | 50.90174 | 4.49361 | 139 ft | 18 kts | 194° |
| 2026-05-01 13:39 | 50.90029 | 4.49303 | 141 ft | 21 kts | 195° |
| 2026-05-01 13:40 | 50.89879 | 4.49241 | 148 ft | 24 kts | 194° |
| 2026-05-01 13:40 | 50.89742 | 4.49182 | 156 ft | 17 kts | 195° |
| 2026-05-01 13:40 | 50.89630 | 4.49119 | 162 ft | 20 kts | 223° |
| 2026-05-01 13:40 | 50.89473 | 4.49026 | 168 ft | 28 kts | 194° |
| 2026-05-01 13:41 | 50.89297 | 4.48922 | 175 ft | 19 kts | 233° |
| 2026-05-01 13:41 | 50.89244 | 4.48668 | 173 ft | 31 kts | 249° |
| 2026-05-01 13:41 | 50.89169 | 4.48352 | 173 ft | 30 kts | 251° |
| 2026-05-01 13:41 | 50.89099 | 4.48049 | 173 ft | 23 kts | 250° |
| 2026-05-01 13:42 | 50.89048 | 4.47916 | 175 ft | 12 kts | 209° |
| 2026-05-01 13:42 | 50.88994 | 4.47913 | 181 ft | 5 kts | 167° |
| 2026-05-01 13:42 | 50.88952 | 4.47945 | 188 ft | 13 kts | 149° |
| 2026-05-01 13:42 | 50.88917 | 4.48034 | 195 ft | 11 kts | 104° |
| 2026-05-01 13:43 | 50.88933 | 4.48168 | 193 ft | 1 kts | 70° |
| 2026-05-01 13:43 | 50.88937 | 4.48184 | 190 ft | 3 kts | 70° |
| 2026-05-01 13:43 | 50.88949 | 4.48240 | 204 ft | 7 kts | 71° |
| 2026-05-01 13:43 | 50.89008 | 4.48490 | 197 ft | 65 kts | 70° |
| 2026-05-01 13:44 | 50.89272 | 4.49634 | 205 ft | 154 kts | 70° |
| 2026-05-01 13:44 | 50.89710 | 4.51404 | 595 ft | 184 kts | 70° |
| 2026-05-01 13:44 | 50.90224 | 4.53273 | 1535 ft | 188 kts | 68° |
| 2026-05-01 13:44 | 50.90829 | 4.55278 | 2083 ft | 218 kts | 68° |
| 2026-05-01 13:45 | 50.91550 | 4.57574 | 2532 ft | 247 kts | 67° |
| 2026-05-01 13:45 | 50.92351 | 4.60074 | 3291 ft | 259 kts | 65° |
| 2026-05-01 13:45 | 50.93179 | 4.62652 | 4226 ft | 266 kts | 66° |
| 2026-05-01 13:45 | 50.93897 | 4.65394 | 5165 ft | 272 kts | 73° |
| 2026-05-01 13:46 | 50.94478 | 4.68275 | 6107 ft | 277 kts | 76° |
| 2026-05-01 13:46 | 50.95033 | 4.71181 | 7068 ft | 279 kts | 77° |
| 2026-05-01 13:46 | 50.95461 | 4.74172 | 8076 ft | 278 kts | 89° |
| 2026-05-01 13:46 | 50.95287 | 4.77184 | 9057 ft | 275 kts | 111° |
| 2026-05-01 13:47 | 50.94371 | 4.79803 | 10099 ft | 272 kts | 134° |
| 2026-05-01 13:47 | 50.92989 | 4.81904 | 10807 ft | 283 kts | 142° |
| 2026-05-01 13:47 | 50.91408 | 4.83960 | 11141 ft | 304 kts | 143° |
| 2026-05-01 13:47 | 50.89707 | 4.86061 | 11584 ft | 315 kts | 147° |
| 2026-05-01 13:48 | 50.87756 | 4.87670 | 12198 ft | 318 kts | 162° |
| 2026-05-01 13:48 | 50.85569 | 4.88389 | 12862 ft | 322 kts | 173° |
| 2026-05-01 13:48 | 50.83325 | 4.88765 | 13461 ft | 325 kts | 175° |
| 2026-05-01 13:48 | 50.81054 | 4.89091 | 14050 ft | 330 kts | 175° |
| 2026-05-01 13:49 | 50.78792 | 4.89418 | 14631 ft | 332 kts | 175° |
| 2026-05-01 13:49 | 50.76477 | 4.89762 | 15200 ft | 336 kts | 175° |
| 2026-05-01 13:49 | 50.74137 | 4.90118 | 15778 ft | 339 kts | 175° |
| 2026-05-01 13:49 | 50.71778 | 4.90482 | 16362 ft | 342 kts | 175° |
| 2026-05-01 13:50 | 50.69407 | 4.90989 | 16902 ft | 346 kts | 169° |
| 2026-05-01 13:50 | 50.67088 | 4.92064 | 17496 ft | 349 kts | 159° |
| 2026-05-01 13:50 | 50.64930 | 4.93835 | 18086 ft | 353 kts | 148° |
| 2026-05-01 13:50 | 50.63004 | 4.96255 | 18651 ft | 357 kts | 140° |
| 2026-05-01 13:51 | 50.61204 | 4.98987 | 19164 ft | 360 kts | 137° |
| 2026-05-01 13:51 | 50.59422 | 5.01781 | 19671 ft | 363 kts | 137° |
| 2026-05-01 13:51 | 50.57624 | 5.04600 | 20180 ft | 367 kts | 137° |
| 2026-05-01 13:51 | 50.55803 | 5.07437 | 20679 ft | 370 kts | 137° |
| 2026-05-01 13:52 | 50.53964 | 5.10290 | 21176 ft | 373 kts | 137° |
| 2026-05-01 13:52 | 50.52104 | 5.13164 | 21653 ft | 376 kts | 137° |
| 2026-05-01 13:52 | 50.50233 | 5.16051 | 22146 ft | 379 kts | 137° |
| 2026-05-01 13:52 | 50.48342 | 5.18963 | 22609 ft | 383 kts | 136° |
| 2026-05-01 13:53 | 50.46460 | 5.21858 | 23154 ft | 383 kts | 136° |
| 2026-05-01 13:53 | 50.42611 | 5.27766 | 24016 ft | 390 kts | 136° |
| 2026-05-01 13:53 | 50.40660 | 5.30757 | 24315 ft | 394 kts | 136° |
| 2026-05-01 13:54 | 50.38699 | 5.33768 | 24737 ft | 394 kts | 136° |
| 2026-05-01 13:54 | 50.36726 | 5.36793 | 25030 ft | 398 kts | 136° |
| 2026-05-01 13:54 | 50.34742 | 5.39828 | 25369 ft | 400 kts | 136° |
| 2026-05-01 13:54 | 50.32740 | 5.42885 | 25634 ft | 404 kts | 136° |
| 2026-05-01 13:55 | 50.30729 | 5.45951 | 26038 ft | 402 kts | 136° |
| 2026-05-01 13:55 | 50.28717 | 5.49011 | 26325 ft | 405 kts | 136° |
| 2026-05-01 13:55 | 50.26690 | 5.52091 | 26597 ft | 407 kts | 136° |
| 2026-05-01 13:55 | 50.24657 | 5.55175 | 26895 ft | 408 kts | 136° |
| 2026-05-01 13:56 | 50.22641 | 5.58230 | 27152 ft | 409 kts | 136° |
| 2026-05-01 13:56 | 50.20559 | 5.61381 | 27334 ft | 413 kts | 136° |
| 2026-05-01 13:56 | 50.18518 | 5.64466 | 27612 ft | 414 kts | 136° |
| 2026-05-01 13:56 | 50.16467 | 5.67563 | 28111 ft | 409 kts | 136° |
| 2026-05-01 13:57 | 50.14415 | 5.70655 | 28353 ft | 412 kts | 136° |
| 2026-05-01 13:57 | 50.13021 | 5.72756 | 28579 ft | 412 kts | 136° |
| 2026-05-01 13:57 | 50.10302 | 5.76847 | 29120 ft | 409 kts | 137° |
| 2026-05-01 13:57 | 50.08259 | 5.79917 | 29628 ft | 405 kts | 137° |
| 2026-05-01 13:58 | 50.06228 | 5.82965 | 29936 ft | 407 kts | 137° |
| 2026-05-01 13:58 | 50.04194 | 5.86016 | 30376 ft | 404 kts | 136° |
| 2026-05-01 13:58 | 50.02178 | 5.89034 | 30810 ft | 400 kts | 137° |
| 2026-05-01 13:58 | 50.00185 | 5.92015 | 31187 ft | 397 kts | 137° |
| 2026-05-01 13:59 | 49.98181 | 5.95006 | 31340 ft | 403 kts | 137° |
| 2026-05-01 13:59 | 49.96146 | 5.98040 | 31275 ft | 406 kts | 137° |
| 2026-05-01 13:59 | 49.92067 | 6.04112 | 31261 ft | 406 kts | 137° |
| 2026-05-01 14:00 | 49.87989 | 6.10213 | 31258 ft | 407 kts | 135° |
| 2026-05-01 14:00 | 49.84665 | 6.17210 | 31275 ft | 407 kts | 120° |
| 2026-05-01 14:01 | 49.82016 | 6.24954 | 31255 ft | 406 kts | 118° |
| 2026-05-01 14:01 | 49.79393 | 6.32721 | 31271 ft | 407 kts | 119° |
| 2026-05-01 14:02 | 49.76756 | 6.40467 | 31272 ft | 407 kts | 118° |
| 2026-05-01 14:02 | 49.74103 | 6.48224 | 31269 ft | 408 kts | 118° |
| 2026-05-01 14:03 | 49.71438 | 6.55985 | 31252 ft | 408 kts | 118° |
| 2026-05-01 14:03 | 49.68768 | 6.63740 | 31265 ft | 409 kts | 118° |
| 2026-05-01 14:04 | 49.66096 | 6.71494 | 31263 ft | 408 kts | 118° |
| 2026-05-01 14:04 | 49.63879 | 6.77918 | 31249 ft | 409 kts | 118° |
| 2026-05-01 14:05 | 49.61189 | 6.85694 | 31257 ft | 412 kts | 118° |
| 2026-05-01 14:05 | 49.58045 | 6.94752 | 31272 ft | 412 kts | 118° |
| 2026-05-01 14:06 | 49.55789 | 7.01227 | 31283 ft | 412 kts | 119° |
| 2026-05-01 14:06 | 49.53071 | 7.09007 | 31270 ft | 412 kts | 118° |
| 2026-05-01 14:07 | 49.50356 | 7.16754 | 31270 ft | 410 kts | 119° |
| 2026-05-01 14:08 | 49.46310 | 7.28256 | 31284 ft | 412 kts | 118° |
| 2026-05-01 14:08 | 49.43576 | 7.35999 | 31272 ft | 412 kts | 119° |
| 2026-05-01 14:09 | 49.40836 | 7.43740 | 31268 ft | 412 kts | 118° |
| 2026-05-01 14:09 | 49.38092 | 7.51467 | 31270 ft | 412 kts | 119° |
| 2026-05-01 14:10 | 49.35341 | 7.59189 | 31258 ft | 412 kts | 118° |
| 2026-05-01 14:10 | 49.32599 | 7.66862 | 31258 ft | 413 kts | 118° |
| 2026-05-01 14:11 | 49.29827 | 7.74598 | 31260 ft | 413 kts | 117° |
| 2026-05-01 14:11 | 49.25666 | 7.86170 | 31263 ft | 413 kts | 118° |
| 2026-05-01 14:12 | 49.22888 | 7.93864 | 31269 ft | 412 kts | 119° |
| 2026-05-01 14:12 | 49.20110 | 8.01537 | 31274 ft | 412 kts | 118° |
| 2026-05-01 14:13 | 49.17314 | 8.09237 | 31274 ft | 415 kts | 118° |
| 2026-05-01 14:13 | 49.14500 | 8.16962 | 31274 ft | 416 kts | 118° |
| 2026-05-01 14:14 | 49.11684 | 8.24670 | 31273 ft | 416 kts | 118° |
| 2026-05-01 14:14 | 49.08881 | 8.32319 | 31275 ft | 415 kts | 118° |
| 2026-05-01 14:15 | 49.06057 | 8.40005 | 31275 ft | 416 kts | 118° |
| 2026-05-01 14:15 | 49.03228 | 8.47681 | 31273 ft | 415 kts | 118° |
| 2026-05-01 14:16 | 49.00310 | 8.55284 | 31280 ft | 417 kts | 123° |
| 2026-05-01 14:16 | 48.96402 | 8.61792 | 31277 ft | 418 kts | 138° |
| 2026-05-01 14:17 | 48.91927 | 8.67430 | 31275 ft | 418 kts | 141° |
| 2026-05-01 14:17 | 48.87342 | 8.72890 | 31275 ft | 418 kts | 142° |
| 2026-05-01 14:18 | 48.82754 | 8.78337 | 31280 ft | 419 kts | 142° |
| 2026-05-01 14:18 | 48.78935 | 8.82899 | 31274 ft | 420 kts | 141° |
| 2026-05-01 14:19 | 48.73575 | 8.89313 | 31275 ft | 423 kts | 141° |
| 2026-05-01 14:19 | 48.68946 | 8.94845 | 31272 ft | 423 kts | 141° |
| 2026-05-01 14:20 | 48.62030 | 9.03079 | 31269 ft | 421 kts | 141° |
| 2026-05-01 14:21 | 48.57413 | 9.08559 | 31270 ft | 421 kts | 142° |
| 2026-05-01 14:21 | 48.52843 | 9.13968 | 31275 ft | 419 kts | 141° |
| 2026-05-01 14:22 | 48.45957 | 9.22102 | 31290 ft | 420 kts | 141° |
| 2026-05-01 14:22 | 48.41354 | 9.27524 | 31291 ft | 419 kts | 141° |
| 2026-05-01 14:23 | 48.36753 | 9.32931 | 31292 ft | 420 kts | 141° |
| 2026-05-01 14:23 | 48.32146 | 9.38330 | 31296 ft | 420 kts | 141° |
| 2026-05-01 14:24 | 48.27538 | 9.43718 | 31299 ft | 419 kts | 142° |
| 2026-05-01 14:24 | 48.22965 | 9.49162 | 31306 ft | 420 kts | 140° |
| 2026-05-01 14:25 | 48.18448 | 9.54734 | 31305 ft | 420 kts | 139° |
| 2026-05-01 14:25 | 48.13973 | 9.60271 | 31308 ft | 419 kts | 139° |
| 2026-05-01 14:26 | 48.07195 | 9.68600 | 31309 ft | 420 kts | 140° |
| 2026-05-01 14:27 | 48.02669 | 9.74132 | 31306 ft | 420 kts | 139° |
| 2026-05-01 14:27 | 47.98141 | 9.79650 | 31305 ft | 420 kts | 140° |
| 2026-05-01 14:28 | 47.91342 | 9.87913 | 31293 ft | 420 kts | 139° |
| 2026-05-01 14:28 | 47.86838 | 9.93371 | 31292 ft | 420 kts | 139° |
| 2026-05-01 14:29 | 47.82290 | 9.98871 | 31292 ft | 420 kts | 140° |
| 2026-05-01 14:30 | 47.73194 | 10.09831 | 31298 ft | 420 kts | 139° |
| 2026-05-01 14:31 | 47.66396 | 10.17992 | 31302 ft | 421 kts | 139° |
| 2026-05-01 14:31 | 47.61834 | 10.23452 | 31303 ft | 421 kts | 139° |
| 2026-05-01 14:32 | 47.57276 | 10.28891 | 31298 ft | 421 kts | 140° |
| 2026-05-01 14:32 | 47.52468 | 10.33882 | 31301 ft | 422 kts | 144° |
| 2026-05-01 14:33 | 47.47558 | 10.38686 | 31304 ft | 423 kts | 145° |
| 2026-05-01 14:33 | 47.42620 | 10.43452 | 31301 ft | 423 kts | 145° |
| 2026-05-01 14:34 | 47.37718 | 10.48176 | 31294 ft | 423 kts | 145° |
| 2026-05-01 14:34 | 47.32792 | 10.52924 | 31289 ft | 423 kts | 145° |
| 2026-05-01 14:35 | 47.27877 | 10.57694 | 31288 ft | 423 kts | 143° |
| 2026-05-01 14:35 | 47.23095 | 10.62646 | 31291 ft | 422 kts | 142° |
| 2026-05-01 14:36 | 47.18332 | 10.67696 | 31283 ft | 421 kts | 142° |
| 2026-05-01 14:36 | 47.13557 | 10.72736 | 31282 ft | 422 kts | 142° |
| 2026-05-01 14:37 | 47.08766 | 10.77754 | 31281 ft | 423 kts | 142° |
| 2026-05-01 14:37 | 47.03970 | 10.82754 | 31279 ft | 423 kts | 142° |
| 2026-05-01 14:38 | 46.99166 | 10.87750 | 31280 ft | 423 kts | 142° |
| 2026-05-01 14:38 | 46.94392 | 10.92702 | 31291 ft | 423 kts | 142° |
| 2026-05-01 14:39 | 46.89579 | 10.97684 | 31290 ft | 423 kts | 142° |
| 2026-05-01 14:39 | 46.84770 | 11.02651 | 31290 ft | 423 kts | 142° |
| 2026-05-01 14:40 | 46.80221 | 11.08026 | 31295 ft | 419 kts | 133° |
| 2026-05-01 14:40 | 46.76096 | 11.14040 | 31280 ft | 419 kts | 131° |
| 2026-05-01 14:41 | 46.72052 | 11.20166 | 31284 ft | 419 kts | 130° |
| 2026-05-01 14:41 | 46.68012 | 11.26296 | 31252 ft | 419 kts | 131° |
| 2026-05-01 14:42 | 46.63991 | 11.32358 | 31250 ft | 419 kts | 131° |
| 2026-05-01 14:42 | 46.59935 | 11.38439 | 31262 ft | 419 kts | 131° |
| 2026-05-01 14:43 | 46.55873 | 11.44512 | 31246 ft | 419 kts | 130° |
| 2026-05-01 14:43 | 46.51802 | 11.50587 | 31247 ft | 419 kts | 131° |
| 2026-05-01 14:44 | 46.47727 | 11.56654 | 31247 ft | 420 kts | 131° |
| 2026-05-01 14:44 | 46.41594 | 11.65758 | 31263 ft | 420 kts | 131° |
| 2026-05-01 14:45 | 46.35464 | 11.74825 | 31300 ft | 420 kts | 131° |
| 2026-05-01 14:46 | 46.31394 | 11.80830 | 31294 ft | 420 kts | 131° |
| 2026-05-01 14:46 | 46.25250 | 11.89869 | 31294 ft | 419 kts | 131° |
| 2026-05-01 14:47 | 46.21151 | 11.95878 | 31298 ft | 419 kts | 131° |
| 2026-05-01 14:48 | 46.14998 | 12.04875 | 31315 ft | 420 kts | 131° |
| 2026-05-01 14:48 | 46.08862 | 12.13818 | 31309 ft | 420 kts | 131° |
| 2026-05-01 14:49 | 46.00873 | 12.25422 | 31320 ft | 420 kts | 131° |
| 2026-05-01 14:50 | 45.92633 | 12.37351 | 31327 ft | 421 kts | 130° |
| 2026-05-01 14:51 | 45.86453 | 12.46262 | 31327 ft | 421 kts | 130° |
| 2026-05-01 14:52 | 45.80911 | 12.54225 | 31320 ft | 421 kts | 130° |
| 2026-05-01 14:53 | 45.74692 | 12.63135 | 31322 ft | 422 kts | 130° |
| 2026-05-01 14:53 | 45.70562 | 12.69034 | 31320 ft | 422 kts | 130° |
| 2026-05-01 14:54 | 45.66399 | 12.74964 | 31321 ft | 423 kts | 130° |
| 2026-05-01 14:54 | 45.62227 | 12.80893 | 31316 ft | 422 kts | 130° |
| 2026-05-01 14:55 | 45.58057 | 12.86806 | 31320 ft | 422 kts | 130° |
| 2026-05-01 14:55 | 45.53887 | 12.92706 | 31313 ft | 422 kts | 130° |
| 2026-05-01 14:56 | 45.49710 | 12.98601 | 31325 ft | 422 kts | 130° |
| 2026-05-01 14:56 | 45.45530 | 13.04489 | 31313 ft | 422 kts | 130° |
| 2026-05-01 14:57 | 45.41349 | 13.10363 | 31324 ft | 422 kts | 130° |
| 2026-05-01 14:57 | 45.35064 | 13.19168 | 31308 ft | 423 kts | 130° |
| 2026-05-01 14:58 | 45.30973 | 13.25139 | 31337 ft | 419 kts | 124° |
| 2026-05-01 14:58 | 45.27297 | 13.31523 | 31305 ft | 416 kts | 122° |
| 2026-05-01 14:59 | 45.23720 | 13.37958 | 31304 ft | 415 kts | 122° |
| 2026-05-01 14:59 | 45.20153 | 13.44406 | 31307 ft | 415 kts | 122° |
| 2026-05-01 15:00 | 45.14811 | 13.54001 | 31311 ft | 415 kts | 122° |
| 2026-05-01 15:01 | 45.11222 | 13.60410 | 31310 ft | 414 kts | 122° |
| 2026-05-01 15:01 | 45.07634 | 13.66802 | 31312 ft | 414 kts | 122° |
| 2026-05-01 15:02 | 45.04045 | 13.73185 | 31308 ft | 414 kts | 122° |
| 2026-05-01 15:02 | 45.00449 | 13.79566 | 31309 ft | 414 kts | 122° |
| 2026-05-01 15:03 | 44.96855 | 13.85933 | 31318 ft | 415 kts | 122° |
| 2026-05-01 15:03 | 44.93261 | 13.92286 | 31319 ft | 413 kts | 122° |
| 2026-05-01 15:04 | 44.89696 | 13.98573 | 31323 ft | 412 kts | 121° |
| 2026-05-01 15:04 | 44.86112 | 14.04876 | 31319 ft | 411 kts | 121° |
| 2026-05-01 15:05 | 44.82525 | 14.11172 | 31299 ft | 412 kts | 121° |
| 2026-05-01 15:05 | 44.78935 | 14.17458 | 31334 ft | 412 kts | 121° |
| 2026-05-01 15:06 | 44.75347 | 14.23720 | 31293 ft | 409 kts | 121° |
| 2026-05-01 15:06 | 44.71779 | 14.29935 | 31293 ft | 409 kts | 121° |
| 2026-05-01 15:07 | 44.68199 | 14.36161 | 31296 ft | 409 kts | 121° |
| 2026-05-01 15:07 | 44.64645 | 14.42332 | 31293 ft | 408 kts | 121° |
| 2026-05-01 15:08 | 44.61057 | 14.48546 | 31319 ft | 408 kts | 121° |
| 2026-05-01 15:08 | 44.57491 | 14.54706 | 31289 ft | 406 kts | 121° |
| 2026-05-01 15:09 | 44.53930 | 14.60847 | 31289 ft | 405 kts | 121° |
| 2026-05-01 15:09 | 44.50386 | 14.66946 | 31287 ft | 406 kts | 121° |
| 2026-05-01 15:10 | 44.46819 | 14.73075 | 31285 ft | 406 kts | 121° |
| 2026-05-01 15:10 | 44.41457 | 14.82256 | 31289 ft | 406 kts | 121° |
| 2026-05-01 15:11 | 44.36089 | 14.91419 | 31272 ft | 406 kts | 121° |
| 2026-05-01 15:12 | 44.32535 | 14.97471 | 31276 ft | 406 kts | 121° |
| 2026-05-01 15:12 | 44.27153 | 15.06607 | 31289 ft | 406 kts | 121° |
| 2026-05-01 15:14 | 44.18191 | 15.21755 | 31241 ft | 405 kts | 121° |
| 2026-05-01 15:14 | 44.12812 | 15.30812 | 31241 ft | 403 kts | 121° |
| 2026-05-01 15:15 | 44.04898 | 15.42065 | 31237 ft | 412 kts | 129° |
| 2026-05-01 15:16 | 43.96246 | 15.52564 | 31241 ft | 413 kts | 130° |
| 2026-05-01 15:18 | 43.85456 | 15.65622 | 31272 ft | 413 kts | 129° |
| 2026-05-01 15:19 | 43.76839 | 15.76034 | 31235 ft | 410 kts | 129° |
| 2026-05-01 15:19 | 43.70374 | 15.83816 | 31230 ft | 410 kts | 129° |
| 2026-05-01 15:20 | 43.63903 | 15.91580 | 31223 ft | 411 kts | 129° |
| 2026-05-01 15:21 | 43.59608 | 15.96719 | 31221 ft | 410 kts | 130° |
| 2026-05-01 15:21 | 43.55291 | 16.01877 | 31211 ft | 411 kts | 129° |
| 2026-05-01 15:22 | 43.48800 | 16.09610 | 31191 ft | 410 kts | 129° |
| 2026-05-01 15:22 | 43.44477 | 16.14749 | 31187 ft | 410 kts | 131° |
| 2026-05-01 15:23 | 43.40145 | 16.19877 | 31194 ft | 411 kts | 131° |
| 2026-05-01 15:23 | 43.35813 | 16.24991 | 31190 ft | 411 kts | 131° |
| 2026-05-01 15:24 | 43.31479 | 16.30107 | 31195 ft | 410 kts | 131° |
| 2026-05-01 15:24 | 43.27172 | 16.35186 | 31232 ft | 411 kts | 131° |
| 2026-05-01 15:25 | 43.22838 | 16.40288 | 31204 ft | 411 kts | 132° |
| 2026-05-01 15:25 | 43.18487 | 16.45401 | 31199 ft | 412 kts | 132° |
| 2026-05-01 15:26 | 43.14128 | 16.50510 | 31195 ft | 412 kts | 133° |
| 2026-05-01 15:26 | 43.09729 | 16.55570 | 31194 ft | 414 kts | 134° |
| 2026-05-01 15:27 | 43.05162 | 16.60407 | 31197 ft | 415 kts | 135° |
| 2026-05-01 15:28 | 42.98266 | 16.67518 | 31201 ft | 416 kts | 136° |
| 2026-05-01 15:28 | 42.93641 | 16.72301 | 31199 ft | 418 kts | 137° |
| 2026-05-01 15:29 | 42.86682 | 16.79513 | 31192 ft | 419 kts | 137° |
| 2026-05-01 15:30 | 42.78175 | 16.88305 | 31195 ft | 419 kts | 137° |
| 2026-05-01 15:31 | 42.63319 | 17.03586 | 31184 ft | 425 kts | 138° |
| 2026-05-01 15:32 | 42.53860 | 17.13263 | 31179 ft | 425 kts | 139° |
| 2026-05-01 15:34 | 42.50053 | 17.17147 | 31177 ft | 426 kts | 139° |